sensor_id;sensor_type;location;lat;lon;timestamp;P1;durP1;ratioP1;P2;durP2;ratioP2
4311;SDS011;2169;49.086;9.284;2023-10-19T00:02:44;15.70;;;8.93;;
4311;SDS011;2169;49.086;9.284;2023-10-19T00:05:11;14.93;;;9.70;;
4311;SDS011;2169;49.086;9.284;2023-10-19T00:07:39;11.17;;;8.70;;
4311;SDS011;2169;49.086;9.284;2023-10-19T00:10:07;13.73;;;10.80;;
4311;SDS011;2169;49.086;9.284;2023-10-19T00:12:32;11.77;;;9.13;;
4311;SDS011;2169;49.086;9.284;2023-10-19T00:15:00;7.20;;;6.50;;
4311;SDS011;2169;49.086;9.284;2023-10-19T00:17:29;9.60;;;7.90;;
4311;SDS011;2169;49.086;9.284;2023-10-19T00:19:57;15.20;;;8.07;;
4311;SDS011;2169;49.086;9.284;2023-10-19T00:22:40;12.00;;;8.53;;
4311;SDS011;2169;49.086;9.284;2023-10-19T00:25:07;14.57;;;7.80;;
4311;SDS011;2169;49.086;9.284;2023-10-19T00:27:38;11.50;;;8.80;;
4311;SDS011;2169;49.086;9.284;2023-10-19T00:30:09;14.17;;;7.87;;
4311;SDS011;2169;49.086;9.284;2023-10-19T00:32:45;18.90;;;9.73;;
4311;SDS011;2169;49.086;9.284;2023-10-19T00:35:12;10.10;;;8.53;;
4311;SDS011;2169;49.086;9.284;2023-10-19T00:37:52;24.03;;;6.97;;
4311;SDS011;2169;49.086;9.284;2023-10-19T00:40:23;12.60;;;7.10;;
4311;SDS011;2169;49.086;9.284;2023-10-19T00:42:59;14.77;;;7.13;;
4311;SDS011;2169;49.086;9.284;2023-10-19T00:45:32;13.93;;;8.17;;
4311;SDS011;2169;49.086;9.284;2023-10-19T00:48:05;14.63;;;7.47;;
4311;SDS011;2169;49.086;9.284;2023-10-19T00:50:36;9.20;;;6.50;;
4311;SDS011;2169;49.086;9.284;2023-10-19T00:53:03;11.27;;;6.60;;
4311;SDS011;2169;49.086;9.284;2023-10-19T00:55:33;8.63;;;6.27;;
4311;SDS011;2169;49.086;9.284;2023-10-19T00:58:02;8.73;;;6.23;;
4311;SDS011;2169;49.086;9.284;2023-10-19T01:00:36;10.67;;;6.43;;
4311;SDS011;2169;49.086;9.284;2023-10-19T01:03:09;15.30;;;8.37;;
4311;SDS011;2169;49.086;9.284;2023-10-19T01:05:42;10.03;;;7.23;;
4311;SDS011;2169;49.086;9.284;2023-10-19T01:08:13;11.63;;;7.40;;
4311;SDS011;2169;49.086;9.284;2023-10-19T01:10:48;10.57;;;7.53;;
4311;SDS011;2169;49.086;9.284;2023-10-19T01:13:17;15.60;;;7.60;;
4311;SDS011;2169;49.086;9.284;2023-10-19T01:15:53;12.93;;;7.57;;
4311;SDS011;2169;49.086;9.284;2023-10-19T01:18:21;8.00;;;6.10;;
4311;SDS011;2169;49.086;9.284;2023-10-19T01:20:47;10.47;;;7.40;;
4311;SDS011;2169;49.086;9.284;2023-10-19T01:23:18;10.97;;;7.10;;
4311;SDS011;2169;49.086;9.284;2023-10-19T01:25:51;7.37;;;6.60;;
4311;SDS011;2169;49.086;9.284;2023-10-19T01:28:28;7.17;;;5.97;;
4311;SDS011;2169;49.086;9.284;2023-10-19T01:31:07;10.03;;;7.03;;
4311;SDS011;2169;49.086;9.284;2023-10-19T01:33:39;7.97;;;6.33;;
4311;SDS011;2169;49.086;9.284;2023-10-19T01:36:09;7.83;;;6.73;;
4311;SDS011;2169;49.086;9.284;2023-10-19T01:38:50;6.70;;;5.80;;
4311;SDS011;2169;49.086;9.284;2023-10-19T01:41:19;8.10;;;6.43;;
4311;SDS011;2169;49.086;9.284;2023-10-19T01:43:46;9.37;;;6.33;;
4311;SDS011;2169;49.086;9.284;2023-10-19T01:46:18;7.17;;;6.00;;
4311;SDS011;2169;49.086;9.284;2023-10-19T01:48:47;6.90;;;5.30;;
4311;SDS011;2169;49.086;9.284;2023-10-19T01:51:19;5.63;;;4.83;;
4311;SDS011;2169;49.086;9.284;2023-10-19T01:53:46;9.67;;;6.87;;
4311;SDS011;2169;49.086;9.284;2023-10-19T01:56:14;7.27;;;6.20;;
4311;SDS011;2169;49.086;9.284;2023-10-19T01:58:42;10.40;;;7.30;;
4311;SDS011;2169;49.086;9.284;2023-10-19T02:01:11;5.87;;;5.27;;
4311;SDS011;2169;49.086;9.284;2023-10-19T02:03:44;7.23;;;5.97;;
4311;SDS011;2169;49.086;9.284;2023-10-19T02:06:11;8.93;;;6.23;;
4311;SDS011;2169;49.086;9.284;2023-10-19T02:08:43;8.03;;;6.77;;
4311;SDS011;2169;49.086;9.284;2023-10-19T02:11:14;8.47;;;6.20;;
4311;SDS011;2169;49.086;9.284;2023-10-19T02:13:44;8.10;;;4.60;;
4311;SDS011;2169;49.086;9.284;2023-10-19T02:16:12;8.10;;;5.77;;
4311;SDS011;2169;49.086;9.284;2023-10-19T02:18:40;8.90;;;6.13;;
4311;SDS011;2169;49.086;9.284;2023-10-19T02:21:08;7.57;;;6.50;;
4311;SDS011;2169;49.086;9.284;2023-10-19T02:23:37;9.67;;;6.60;;
4311;SDS011;2169;49.086;9.284;2023-10-19T02:26:04;7.80;;;6.13;;
4311;SDS011;2169;49.086;9.284;2023-10-19T02:28:31;13.17;;;5.57;;
4311;SDS011;2169;49.086;9.284;2023-10-19T02:31:02;8.60;;;6.40;;
4311;SDS011;2169;49.086;9.284;2023-10-19T02:33:39;6.70;;;6.10;;
4311;SDS011;2169;49.086;9.284;2023-10-19T02:36:07;9.60;;;6.70;;
4311;SDS011;2169;49.086;9.284;2023-10-19T02:38:38;7.93;;;7.03;;
4311;SDS011;2169;49.086;9.284;2023-10-19T02:41:06;8.20;;;6.87;;
4311;SDS011;2169;49.086;9.284;2023-10-19T02:43:33;13.20;;;7.90;;
4311;SDS011;2169;49.086;9.284;2023-10-19T02:46:00;11.80;;;7.03;;
4311;SDS011;2169;49.086;9.284;2023-10-19T02:48:28;10.43;;;6.33;;
4311;SDS011;2169;49.086;9.284;2023-10-19T02:50:55;12.70;;;7.37;;
4311;SDS011;2169;49.086;9.284;2023-10-19T02:53:30;8.60;;;7.03;;
4311;SDS011;2169;49.086;9.284;2023-10-19T02:55:56;9.80;;;6.93;;
4311;SDS011;2169;49.086;9.284;2023-10-19T02:58:24;7.63;;;6.50;;
4311;SDS011;2169;49.086;9.284;2023-10-19T03:00:54;7.40;;;6.70;;
4311;SDS011;2169;49.086;9.284;2023-10-19T03:03:20;9.30;;;7.10;;
4311;SDS011;2169;49.086;9.284;2023-10-19T03:05:46;11.17;;;8.73;;
4311;SDS011;2169;49.086;9.284;2023-10-19T03:08:12;12.50;;;6.37;;
4311;SDS011;2169;49.086;9.284;2023-10-19T03:10:40;7.53;;;5.90;;
4311;SDS011;2169;49.086;9.284;2023-10-19T03:13:07;9.50;;;8.60;;
4311;SDS011;2169;49.086;9.284;2023-10-19T03:15:34;6.53;;;5.63;;
4311;SDS011;2169;49.086;9.284;2023-10-19T03:18:01;7.03;;;5.70;;
4311;SDS011;2169;49.086;9.284;2023-10-19T03:20:29;13.07;;;6.00;;
4311;SDS011;2169;49.086;9.284;2023-10-19T03:22:58;10.00;;;5.73;;
4311;SDS011;2169;49.086;9.284;2023-10-19T03:25:26;12.57;;;6.50;;
4311;SDS011;2169;49.086;9.284;2023-10-19T03:28:15;12.17;;;6.77;;
4311;SDS011;2169;49.086;9.284;2023-10-19T03:30:43;7.93;;;5.50;;
4311;SDS011;2169;49.086;9.284;2023-10-19T03:33:13;7.50;;;5.20;;
4311;SDS011;2169;49.086;9.284;2023-10-19T03:35:43;23.47;;;7.83;;
4311;SDS011;2169;49.086;9.284;2023-10-19T03:38:10;6.40;;;5.10;;
4311;SDS011;2169;49.086;9.284;2023-10-19T03:40:41;6.37;;;5.70;;
4311;SDS011;2169;49.086;9.284;2023-10-19T03:43:12;7.27;;;5.90;;
4311;SDS011;2169;49.086;9.284;2023-10-19T03:45:43;5.63;;;5.10;;
4311;SDS011;2169;49.086;9.284;2023-10-19T03:48:18;7.20;;;5.03;;
4311;SDS011;2169;49.086;9.284;2023-10-19T03:50:51;6.27;;;5.67;;
4311;SDS011;2169;49.086;9.284;2023-10-19T03:53:20;9.30;;;6.03;;
4311;SDS011;2169;49.086;9.284;2023-10-19T03:55:47;9.30;;;4.93;;
4311;SDS011;2169;49.086;9.284;2023-10-19T03:58:17;5.50;;;5.00;;
4311;SDS011;2169;49.086;9.284;2023-10-19T04:00:45;6.93;;;4.77;;
4311;SDS011;2169;49.086;9.284;2023-10-19T04:03:13;10.10;;;4.50;;
4311;SDS011;2169;49.086;9.284;2023-10-19T04:05:42;6.67;;;5.23;;
4311;SDS011;2169;49.086;9.284;2023-10-19T04:08:11;4.13;;;3.80;;
4311;SDS011;2169;49.086;9.284;2023-10-19T04:10:39;5.37;;;4.60;;
4311;SDS011;2169;49.086;9.284;2023-10-19T04:13:09;11.47;;;4.97;;
4311;SDS011;2169;49.086;9.284;2023-10-19T04:15:37;5.37;;;4.87;;
4311;SDS011;2169;49.086;9.284;2023-10-19T04:18:04;5.73;;;4.63;;
4311;SDS011;2169;49.086;9.284;2023-10-19T04:20:35;6.87;;;4.77;;
4311;SDS011;2169;49.086;9.284;2023-10-19T04:23:08;7.67;;;4.70;;
4311;SDS011;2169;49.086;9.284;2023-10-19T04:25:39;4.97;;;3.50;;
4311;SDS011;2169;49.086;9.284;2023-10-19T04:28:06;5.00;;;3.93;;
4311;SDS011;2169;49.086;9.284;2023-10-19T04:30:34;6.23;;;4.57;;
4311;SDS011;2169;49.086;9.284;2023-10-19T04:33:02;8.00;;;5.03;;
4311;SDS011;2169;49.086;9.284;2023-10-19T04:35:34;8.27;;;5.30;;
4311;SDS011;2169;49.086;9.284;2023-10-19T04:38:00;4.30;;;3.90;;
4311;SDS011;2169;49.086;9.284;2023-10-19T04:40:32;5.53;;;4.77;;
4311;SDS011;2169;49.086;9.284;2023-10-19T04:43:01;4.60;;;3.80;;
4311;SDS011;2169;49.086;9.284;2023-10-19T04:45:29;6.83;;;5.30;;
4311;SDS011;2169;49.086;9.284;2023-10-19T04:47:55;4.60;;;4.30;;
4311;SDS011;2169;49.086;9.284;2023-10-19T04:50:23;5.27;;;4.77;;
4311;SDS011;2169;49.086;9.284;2023-10-19T04:52:50;5.87;;;4.23;;
4311;SDS011;2169;49.086;9.284;2023-10-19T04:55:16;5.30;;;4.50;;
4311;SDS011;2169;49.086;9.284;2023-10-19T04:57:44;4.53;;;4.10;;
4311;SDS011;2169;49.086;9.284;2023-10-19T05:00:12;13.37;;;4.40;;
4311;SDS011;2169;49.086;9.284;2023-10-19T05:02:40;4.20;;;3.63;;
4311;SDS011;2169;49.086;9.284;2023-10-19T05:05:07;15.27;;;4.80;;
4311;SDS011;2169;49.086;9.284;2023-10-19T05:07:34;5.43;;;4.70;;
4311;SDS011;2169;49.086;9.284;2023-10-19T05:10:01;5.47;;;3.60;;
4311;SDS011;2169;49.086;9.284;2023-10-19T05:12:30;3.87;;;3.50;;
4311;SDS011;2169;49.086;9.284;2023-10-19T05:14:58;10.90;;;3.93;;
4311;SDS011;2169;49.086;9.284;2023-10-19T05:17:25;4.80;;;4.40;;
4311;SDS011;2169;49.086;9.284;2023-10-19T05:19:52;4.63;;;4.23;;
4311;SDS011;2169;49.086;9.284;2023-10-19T05:22:19;6.63;;;4.00;;
4311;SDS011;2169;49.086;9.284;2023-10-19T05:24:46;4.73;;;4.43;;
4311;SDS011;2169;49.086;9.284;2023-10-19T05:27:13;4.40;;;3.40;;
4311;SDS011;2169;49.086;9.284;2023-10-19T05:29:40;6.70;;;4.63;;
4311;SDS011;2169;49.086;9.284;2023-10-19T05:32:08;4.60;;;3.70;;
4311;SDS011;2169;49.086;9.284;2023-10-19T05:34:35;6.83;;;4.93;;
4311;SDS011;2169;49.086;9.284;2023-10-19T05:37:02;4.70;;;4.20;;
4311;SDS011;2169;49.086;9.284;2023-10-19T05:39:30;4.17;;;3.73;;
4311;SDS011;2169;49.086;9.284;2023-10-19T05:41:58;6.83;;;3.60;;
4311;SDS011;2169;49.086;9.284;2023-10-19T05:44:26;3.73;;;3.43;;
4311;SDS011;2169;49.086;9.284;2023-10-19T05:46:53;4.30;;;2.87;;
4311;SDS011;2169;49.086;9.284;2023-10-19T05:49:22;3.33;;;3.03;;
4311;SDS011;2169;49.086;9.284;2023-10-19T05:51:49;3.30;;;3.10;;
4311;SDS011;2169;49.086;9.284;2023-10-19T05:54:16;5.00;;;3.70;;
4311;SDS011;2169;49.086;9.284;2023-10-19T05:56:43;4.17;;;3.87;;
4311;SDS011;2169;49.086;9.284;2023-10-19T05:59:11;11.30;;;3.77;;
4311;SDS011;2169;49.086;9.284;2023-10-19T06:01:38;3.63;;;3.30;;
4311;SDS011;2169;49.086;9.284;2023-10-19T06:04:06;3.10;;;3.00;;
4311;SDS011;2169;49.086;9.284;2023-10-19T06:06:34;11.00;;;3.17;;
4311;SDS011;2169;49.086;9.284;2023-10-19T06:09:02;3.50;;;3.20;;
4311;SDS011;2169;49.086;9.284;2023-10-19T06:11:29;3.73;;;3.53;;
4311;SDS011;2169;49.086;9.284;2023-10-19T06:13:57;3.70;;;3.30;;
4311;SDS011;2169;49.086;9.284;2023-10-19T06:16:24;4.70;;;4.30;;
4311;SDS011;2169;49.086;9.284;2023-10-19T06:18:52;5.07;;;3.87;;
4311;SDS011;2169;49.086;9.284;2023-10-19T06:21:19;7.60;;;4.50;;
4311;SDS011;2169;49.086;9.284;2023-10-19T06:23:47;9.90;;;4.10;;
4311;SDS011;2169;49.086;9.284;2023-10-19T06:26:15;4.90;;;3.73;;
4311;SDS011;2169;49.086;9.284;2023-10-19T06:28:42;7.00;;;3.67;;
4311;SDS011;2169;49.086;9.284;2023-10-19T06:31:09;4.17;;;3.77;;
4311;SDS011;2169;49.086;9.284;2023-10-19T06:33:36;5.00;;;4.20;;
4311;SDS011;2169;49.086;9.284;2023-10-19T06:36:06;6.87;;;2.90;;
4311;SDS011;2169;49.086;9.284;2023-10-19T06:38:34;3.73;;;3.53;;
4311;SDS011;2169;49.086;9.284;2023-10-19T06:41:02;5.87;;;3.23;;
4311;SDS011;2169;49.086;9.284;2023-10-19T06:43:37;3.27;;;2.97;;
4311;SDS011;2169;49.086;9.284;2023-10-19T06:46:04;4.10;;;3.70;;
4311;SDS011;2169;49.086;9.284;2023-10-19T06:48:30;3.93;;;3.60;;
4311;SDS011;2169;49.086;9.284;2023-10-19T06:50:57;5.40;;;4.90;;
4311;SDS011;2169;49.086;9.284;2023-10-19T06:53:25;4.80;;;4.10;;
4311;SDS011;2169;49.086;9.284;2023-10-19T06:55:53;3.77;;;3.50;;
4311;SDS011;2169;49.086;9.284;2023-10-19T06:58:21;8.70;;;3.97;;
4311;SDS011;2169;49.086;9.284;2023-10-19T07:00:51;5.77;;;3.80;;
4311;SDS011;2169;49.086;9.284;2023-10-19T07:03:24;4.20;;;3.73;;
4311;SDS011;2169;49.086;9.284;2023-10-19T07:05:53;4.67;;;4.13;;
4311;SDS011;2169;49.086;9.284;2023-10-19T07:08:19;6.60;;;3.63;;
4311;SDS011;2169;49.086;9.284;2023-10-19T07:10:46;4.10;;;3.80;;
4311;SDS011;2169;49.086;9.284;2023-10-19T07:13:14;4.73;;;3.90;;
4311;SDS011;2169;49.086;9.284;2023-10-19T07:15:45;8.03;;;4.70;;
4311;SDS011;2169;49.086;9.284;2023-10-19T07:18:12;7.83;;;5.67;;
4311;SDS011;2169;49.086;9.284;2023-10-19T07:20:39;7.83;;;3.60;;
4311;SDS011;2169;49.086;9.284;2023-10-19T07:23:07;3.83;;;3.43;;
4311;SDS011;2169;49.086;9.284;2023-10-19T07:25:43;5.37;;;4.80;;
4311;SDS011;2169;49.086;9.284;2023-10-19T07:28:10;9.17;;;3.90;;
4311;SDS011;2169;49.086;9.284;2023-10-19T07:30:38;5.90;;;5.17;;
4311;SDS011;2169;49.086;9.284;2023-10-19T07:33:06;5.10;;;4.30;;
4311;SDS011;2169;49.086;9.284;2023-10-19T07:35:35;10.17;;;3.67;;
4311;SDS011;2169;49.086;9.284;2023-10-19T07:38:04;5.93;;;5.33;;
4311;SDS011;2169;49.086;9.284;2023-10-19T07:40:32;4.37;;;3.97;;
4311;SDS011;2169;49.086;9.284;2023-10-19T07:43:00;5.27;;;4.50;;
4311;SDS011;2169;49.086;9.284;2023-10-19T07:45:28;4.87;;;4.37;;
4311;SDS011;2169;49.086;9.284;2023-10-19T07:47:56;5.70;;;3.60;;
4311;SDS011;2169;49.086;9.284;2023-10-19T07:50:32;16.40;;;5.83;;
4311;SDS011;2169;49.086;9.284;2023-10-19T07:52:59;6.50;;;4.87;;
4311;SDS011;2169;49.086;9.284;2023-10-19T07:55:25;4.57;;;4.27;;
4311;SDS011;2169;49.086;9.284;2023-10-19T07:57:52;7.40;;;6.20;;
4311;SDS011;2169;49.086;9.284;2023-10-19T08:00:20;7.37;;;5.77;;
4311;SDS011;2169;49.086;9.284;2023-10-19T08:02:48;11.97;;;6.43;;
4311;SDS011;2169;49.086;9.284;2023-10-19T08:05:16;10.07;;;6.97;;
4311;SDS011;2169;49.086;9.284;2023-10-19T08:07:46;13.00;;;5.87;;
4311;SDS011;2169;49.086;9.284;2023-10-19T08:10:13;12.80;;;6.60;;
4311;SDS011;2169;49.086;9.284;2023-10-19T08:12:41;14.67;;;6.80;;
4311;SDS011;2169;49.086;9.284;2023-10-19T08:15:10;12.63;;;5.90;;
4311;SDS011;2169;49.086;9.284;2023-10-19T08:17:39;8.13;;;6.90;;
4311;SDS011;2169;49.086;9.284;2023-10-19T08:20:07;12.30;;;6.03;;
4311;SDS011;2169;49.086;9.284;2023-10-19T08:22:36;12.90;;;6.40;;
4311;SDS011;2169;49.086;9.284;2023-10-19T08:25:04;10.67;;;6.43;;
4311;SDS011;2169;49.086;9.284;2023-10-19T08:27:37;11.03;;;5.27;;
4311;SDS011;2169;49.086;9.284;2023-10-19T08:30:05;8.57;;;7.00;;
4311;SDS011;2169;49.086;9.284;2023-10-19T08:32:33;8.63;;;5.40;;
4311;SDS011;2169;49.086;9.284;2023-10-19T08:35:00;9.27;;;5.67;;
4311;SDS011;2169;49.086;9.284;2023-10-19T08:37:27;8.17;;;7.10;;
4311;SDS011;2169;49.086;9.284;2023-10-19T08:39:54;7.53;;;6.73;;
4311;SDS011;2169;49.086;9.284;2023-10-19T08:42:22;16.20;;;6.93;;
4311;SDS011;2169;49.086;9.284;2023-10-19T08:44:50;14.97;;;6.10;;
4311;SDS011;2169;49.086;9.284;2023-10-19T08:47:17;6.80;;;5.83;;
4311;SDS011;2169;49.086;9.284;2023-10-19T08:49:44;6.80;;;6.17;;
4311;SDS011;2169;49.086;9.284;2023-10-19T08:52:11;10.20;;;5.80;;
4311;SDS011;2169;49.086;9.284;2023-10-19T08:54:40;6.30;;;4.47;;
4311;SDS011;2169;49.086;9.284;2023-10-19T08:57:06;5.63;;;4.70;;
4311;SDS011;2169;49.086;9.284;2023-10-19T08:59:35;11.40;;;4.60;;
4311;SDS011;2169;49.086;9.284;2023-10-19T09:02:03;4.63;;;4.23;;
4311;SDS011;2169;49.086;9.284;2023-10-19T09:04:31;5.40;;;3.73;;
4311;SDS011;2169;49.086;9.284;2023-10-19T09:06:58;5.63;;;3.70;;
4311;SDS011;2169;49.086;9.284;2023-10-19T09:09:31;5.10;;;3.70;;
4311;SDS011;2169;49.086;9.284;2023-10-19T09:11:59;3.30;;;3.00;;
4311;SDS011;2169;49.086;9.284;2023-10-19T09:14:30;6.37;;;2.40;;
4311;SDS011;2169;49.086;9.284;2023-10-19T09:17:02;3.00;;;2.80;;
4311;SDS011;2169;49.086;9.284;2023-10-19T09:19:36;6.17;;;3.17;;
4311;SDS011;2169;49.086;9.284;2023-10-19T09:22:04;5.03;;;3.10;;
4311;SDS011;2169;49.086;9.284;2023-10-19T09:24:41;3.43;;;3.23;;
4311;SDS011;2169;49.086;9.284;2023-10-19T09:27:10;1.73;;;1.57;;
4311;SDS011;2169;49.086;9.284;2023-10-19T09:29:37;3.27;;;2.97;;
4311;SDS011;2169;49.086;9.284;2023-10-19T09:32:07;5.13;;;2.50;;
4311;SDS011;2169;49.086;9.284;2023-10-19T09:34:34;4.27;;;3.87;;
4311;SDS011;2169;49.086;9.284;2023-10-19T09:37:02;2.33;;;2.10;;
4311;SDS011;2169;49.086;9.284;2023-10-19T09:39:30;2.30;;;1.50;;
4311;SDS011;2169;49.086;9.284;2023-10-19T09:42:00;2.00;;;1.67;;
4311;SDS011;2169;49.086;9.284;2023-10-19T09:44:30;3.80;;;2.87;;
4311;SDS011;2169;49.086;9.284;2023-10-19T09:47:06;3.47;;;1.87;;
4311;SDS011;2169;49.086;9.284;2023-10-19T09:49:38;10.77;;;4.20;;
4311;SDS011;2169;49.086;9.284;2023-10-19T09:52:06;2.30;;;2.07;;
4311;SDS011;2169;49.086;9.284;2023-10-19T09:54:38;1.53;;;1.43;;
4311;SDS011;2169;49.086;9.284;2023-10-19T09:57:13;2.20;;;1.80;;
4311;SDS011;2169;49.086;9.284;2023-10-19T09:59:45;1.90;;;1.80;;
4311;SDS011;2169;49.086;9.284;2023-10-19T10:02:17;1.60;;;1.30;;
4311;SDS011;2169;49.086;9.284;2023-10-19T10:04:47;2.97;;;1.20;;
4311;SDS011;2169;49.086;9.284;2023-10-19T10:07:14;1.87;;;1.77;;
4311;SDS011;2169;49.086;9.284;2023-10-19T10:09:42;1.07;;;0.90;;
4311;SDS011;2169;49.086;9.284;2023-10-19T10:12:15;3.50;;;1.60;;
4311;SDS011;2169;49.086;9.284;2023-10-19T10:14:52;1.73;;;1.20;;
4311;SDS011;2169;49.086;9.284;2023-10-19T10:17:23;3.33;;;1.43;;
4311;SDS011;2169;49.086;9.284;2023-10-19T10:19:53;1.93;;;1.40;;
4311;SDS011;2169;49.086;9.284;2023-10-19T10:22:21;14.13;;;2.03;;
4311;SDS011;2169;49.086;9.284;2023-10-19T10:24:53;1.40;;;1.10;;
4311;SDS011;2169;49.086;9.284;2023-10-19T10:27:21;9.77;;;1.43;;
4311;SDS011;2169;49.086;9.284;2023-10-19T10:29:54;4.40;;;1.17;;
4311;SDS011;2169;49.086;9.284;2023-10-19T10:38:19;1.30;;;1.30;;
4311;SDS011;2169;49.086;9.284;2023-10-19T10:40:47;2.40;;;1.90;;
4311;SDS011;2169;49.086;9.284;2023-10-19T10:43:15;1.63;;;1.53;;
4311;SDS011;2169;49.086;9.284;2023-10-19T10:45:42;0.90;;;0.90;;
4311;SDS011;2169;49.086;9.284;2023-10-19T10:48:14;1.77;;;1.67;;
4311;SDS011;2169;49.086;9.284;2023-10-19T10:50:42;2.10;;;1.40;;
4311;SDS011;2169;49.086;9.284;2023-10-19T10:53:11;1.40;;;1.30;;
4311;SDS011;2169;49.086;9.284;2023-10-19T10:55:38;0.97;;;0.97;;
4311;SDS011;2169;49.086;9.284;2023-10-19T10:58:05;3.70;;;1.40;;
4311;SDS011;2169;49.086;9.284;2023-10-19T11:00:32;3.03;;;1.80;;
4311;SDS011;2169;49.086;9.284;2023-10-19T11:03:01;1.70;;;1.43;;
4311;SDS011;2169;49.086;9.284;2023-10-19T11:05:31;4.10;;;1.63;;
4311;SDS011;2169;49.086;9.284;2023-10-19T11:08:02;2.60;;;1.00;;
4311;SDS011;2169;49.086;9.284;2023-10-19T11:10:34;1.40;;;1.33;;
4311;SDS011;2169;49.086;9.284;2023-10-19T11:13:02;1.97;;;1.50;;
4311;SDS011;2169;49.086;9.284;2023-10-19T11:15:29;2.50;;;1.70;;
4311;SDS011;2169;49.086;9.284;2023-10-19T11:17:56;4.00;;;2.03;;
4311;SDS011;2169;49.086;9.284;2023-10-19T11:20:23;8.03;;;1.43;;
4311;SDS011;2169;49.086;9.284;2023-10-19T11:22:54;1.43;;;1.40;;
4311;SDS011;2169;49.086;9.284;2023-10-19T11:25:22;1.43;;;1.10;;
4311;SDS011;2169;49.086;9.284;2023-10-19T11:27:53;1.13;;;1.00;;
4311;SDS011;2169;49.086;9.284;2023-10-19T11:30:23;1.27;;;1.17;;
4311;SDS011;2169;49.086;9.284;2023-10-19T11:32:50;2.43;;;1.43;;
4311;SDS011;2169;49.086;9.284;2023-10-19T11:35:22;3.30;;;1.50;;
4311;SDS011;2169;49.086;9.284;2023-10-19T11:37:50;7.40;;;1.80;;
4311;SDS011;2169;49.086;9.284;2023-10-19T11:40:20;1.40;;;1.30;;
4311;SDS011;2169;49.086;9.284;2023-10-19T11:42:47;4.87;;;1.00;;
4311;SDS011;2169;49.086;9.284;2023-10-19T11:45:14;3.47;;;1.10;;
4311;SDS011;2169;49.086;9.284;2023-10-19T11:47:42;1.53;;;1.23;;
4311;SDS011;2169;49.086;9.284;2023-10-19T11:50:10;1.33;;;1.00;;
4311;SDS011;2169;49.086;9.284;2023-10-19T11:52:39;1.30;;;1.20;;
4311;SDS011;2169;49.086;9.284;2023-10-19T11:55:06;8.47;;;1.47;;
4311;SDS011;2169;49.086;9.284;2023-10-19T11:57:35;1.60;;;1.50;;
4311;SDS011;2169;49.086;9.284;2023-10-19T12:00:02;0.83;;;0.83;;
4311;SDS011;2169;49.086;9.284;2023-10-19T12:02:34;4.00;;;1.83;;
4311;SDS011;2169;49.086;9.284;2023-10-19T12:05:02;1.73;;;1.63;;
4311;SDS011;2169;49.086;9.284;2023-10-19T12:07:34;2.13;;;1.27;;
4311;SDS011;2169;49.086;9.284;2023-10-19T12:10:02;2.47;;;1.50;;
4311;SDS011;2169;49.086;9.284;2023-10-19T12:12:29;4.93;;;1.77;;
4311;SDS011;2169;49.086;9.284;2023-10-19T12:14:58;1.50;;;1.40;;
4311;SDS011;2169;49.086;9.284;2023-10-19T12:17:24;7.27;;;1.77;;
4311;SDS011;2169;49.086;9.284;2023-10-19T12:19:52;2.50;;;1.73;;
4311;SDS011;2169;49.086;9.284;2023-10-19T12:22:20;1.73;;;1.30;;
4311;SDS011;2169;49.086;9.284;2023-10-19T12:24:47;6.13;;;1.77;;
4311;SDS011;2169;49.086;9.284;2023-10-19T12:27:14;2.60;;;1.73;;
4311;SDS011;2169;49.086;9.284;2023-10-19T12:29:41;2.17;;;1.10;;
4311;SDS011;2169;49.086;9.284;2023-10-19T12:32:10;3.63;;;1.63;;
4311;SDS011;2169;49.086;9.284;2023-10-19T12:34:39;7.00;;;2.13;;
4311;SDS011;2169;49.086;9.284;2023-10-19T12:37:06;3.50;;;2.33;;
4311;SDS011;2169;49.086;9.284;2023-10-19T12:39:35;4.93;;;2.13;;
4311;SDS011;2169;49.086;9.284;2023-10-19T12:42:07;3.73;;;1.93;;
4311;SDS011;2169;49.086;9.284;2023-10-19T12:44:34;4.57;;;2.83;;
4311;SDS011;2169;49.086;9.284;2023-10-19T12:47:06;9.33;;;1.90;;
4311;SDS011;2169;49.086;9.284;2023-10-19T12:49:37;1.80;;;1.47;;
4311;SDS011;2169;49.086;9.284;2023-10-19T12:52:04;2.17;;;2.07;;
4311;SDS011;2169;49.086;9.284;2023-10-19T12:54:32;1.03;;;1.03;;
4311;SDS011;2169;49.086;9.284;2023-10-19T12:56:59;2.17;;;1.90;;
4311;SDS011;2169;49.086;9.284;2023-10-19T12:59:28;4.67;;;1.90;;
4311;SDS011;2169;49.086;9.284;2023-10-19T13:01:55;2.47;;;1.57;;
4311;SDS011;2169;49.086;9.284;2023-10-19T13:04:24;2.57;;;2.10;;
4311;SDS011;2169;49.086;9.284;2023-10-19T13:06:52;3.20;;;2.17;;
4311;SDS011;2169;49.086;9.284;2023-10-19T13:09:22;4.13;;;1.90;;
4311;SDS011;2169;49.086;9.284;2023-10-19T13:11:55;2.07;;;1.70;;
4311;SDS011;2169;49.086;9.284;2023-10-19T13:14:23;4.47;;;2.37;;
4311;SDS011;2169;49.086;9.284;2023-10-19T13:16:49;3.17;;;1.37;;
4311;SDS011;2169;49.086;9.284;2023-10-19T13:19:17;11.27;;;2.10;;
4311;SDS011;2169;49.086;9.284;2023-10-19T13:21:45;7.07;;;2.23;;
4311;SDS011;2169;49.086;9.284;2023-10-19T13:24:15;2.27;;;1.93;;
4311;SDS011;2169;49.086;9.284;2023-10-19T13:26:43;1.70;;;1.60;;
4311;SDS011;2169;49.086;9.284;2023-10-19T13:29:12;4.50;;;2.30;;
4311;SDS011;2169;49.086;9.284;2023-10-19T13:31:39;9.40;;;2.20;;
4311;SDS011;2169;49.086;9.284;2023-10-19T13:34:09;4.07;;;2.20;;
4311;SDS011;2169;49.086;9.284;2023-10-19T13:36:38;2.33;;;1.93;;
4311;SDS011;2169;49.086;9.284;2023-10-19T13:39:05;4.00;;;3.23;;
4311;SDS011;2169;49.086;9.284;2023-10-19T13:41:39;5.97;;;1.50;;
4311;SDS011;2169;49.086;9.284;2023-10-19T13:44:05;9.10;;;2.97;;
4311;SDS011;2169;49.086;9.284;2023-10-19T13:46:32;2.20;;;1.63;;
4311;SDS011;2169;49.086;9.284;2023-10-19T13:48:59;4.90;;;2.17;;
4311;SDS011;2169;49.086;9.284;2023-10-19T13:51:28;3.27;;;2.07;;
4311;SDS011;2169;49.086;9.284;2023-10-19T13:53:56;3.03;;;2.50;;
4311;SDS011;2169;49.086;9.284;2023-10-19T13:56:23;2.40;;;2.20;;
4311;SDS011;2169;49.086;9.284;2023-10-19T13:58:52;4.03;;;2.20;;
4311;SDS011;2169;49.086;9.284;2023-10-19T14:01:19;2.30;;;2.20;;
4311;SDS011;2169;49.086;9.284;2023-10-19T14:03:50;4.70;;;1.90;;
4311;SDS011;2169;49.086;9.284;2023-10-19T14:06:20;4.50;;;2.30;;
4311;SDS011;2169;49.086;9.284;2023-10-19T14:08:47;4.97;;;2.30;;
4311;SDS011;2169;49.086;9.284;2023-10-19T14:11:14;3.17;;;1.87;;
4311;SDS011;2169;49.086;9.284;2023-10-19T14:13:40;3.93;;;2.23;;
4311;SDS011;2169;49.086;9.284;2023-10-19T14:16:09;7.53;;;2.33;;
4311;SDS011;2169;49.086;9.284;2023-10-19T14:18:36;3.00;;;2.03;;
4311;SDS011;2169;49.086;9.284;2023-10-19T14:21:09;7.53;;;2.37;;
4311;SDS011;2169;49.086;9.284;2023-10-19T14:23:37;4.73;;;2.10;;
4311;SDS011;2169;49.086;9.284;2023-10-19T14:26:05;2.10;;;2.00;;
4311;SDS011;2169;49.086;9.284;2023-10-19T14:28:31;5.53;;;2.20;;
4311;SDS011;2169;49.086;9.284;2023-10-19T14:31:00;1.67;;;1.57;;
4311;SDS011;2169;49.086;9.284;2023-10-19T14:33:30;3.87;;;2.50;;
4311;SDS011;2169;49.086;9.284;2023-10-19T14:35:58;1.30;;;1.20;;
4311;SDS011;2169;49.086;9.284;2023-10-19T14:38:25;15.70;;;1.67;;
4311;SDS011;2169;49.086;9.284;2023-10-19T14:40:52;6.20;;;1.57;;
4311;SDS011;2169;49.086;9.284;2023-10-19T14:43:19;7.13;;;1.53;;
4311;SDS011;2169;49.086;9.284;2023-10-19T14:45:46;7.63;;;1.30;;
4311;SDS011;2169;49.086;9.284;2023-10-19T14:48:12;3.00;;;1.70;;
4311;SDS011;2169;49.086;9.284;2023-10-19T14:50:41;2.63;;;1.70;;
4311;SDS011;2169;49.086;9.284;2023-10-19T14:53:09;27.30;;;3.63;;
4311;SDS011;2169;49.086;9.284;2023-10-19T14:55:35;3.20;;;2.90;;
4311;SDS011;2169;49.086;9.284;2023-10-19T14:58:02;4.70;;;2.07;;
4311;SDS011;2169;49.086;9.284;2023-10-19T15:00:31;1.97;;;1.77;;
4311;SDS011;2169;49.086;9.284;2023-10-19T15:02:59;9.50;;;2.07;;
4311;SDS011;2169;49.086;9.284;2023-10-19T15:05:32;2.47;;;2.30;;
4311;SDS011;2169;49.086;9.284;2023-10-19T15:08:02;2.50;;;2.30;;
4311;SDS011;2169;49.086;9.284;2023-10-19T15:10:31;3.27;;;2.00;;
4311;SDS011;2169;49.086;9.284;2023-10-19T15:12:58;2.30;;;1.33;;
4311;SDS011;2169;49.086;9.284;2023-10-19T15:15:26;8.93;;;2.13;;
4311;SDS011;2169;49.086;9.284;2023-10-19T15:17:53;3.67;;;2.10;;
4311;SDS011;2169;49.086;9.284;2023-10-19T15:20:21;5.73;;;3.43;;
4311;SDS011;2169;49.086;9.284;2023-10-19T15:22:51;5.83;;;1.60;;
4311;SDS011;2169;49.086;9.284;2023-10-19T15:25:20;4.40;;;1.93;;
4311;SDS011;2169;49.086;9.284;2023-10-19T15:27:49;4.93;;;1.90;;
4311;SDS011;2169;49.086;9.284;2023-10-19T15:30:17;2.93;;;1.70;;